createdAt,value
2019-06-08T00:00:55.807Z,99.90
2019-06-08T00:03:28.081Z,99.90
2019-06-08T00:06:01.617Z,99.90
2019-06-08T00:08:33.894Z,99.90
2019-06-08T00:11:06.223Z,99.90
2019-06-08T00:13:38.858Z,99.90
2019-06-08T00:16:11.207Z,99.90
2019-06-08T00:18:43.474Z,99.90
2019-06-08T00:21:15.768Z,99.90
2019-06-08T00:23:48.093Z,99.90
2019-06-08T00:26:22.073Z,99.90
2019-06-08T00:28:54.463Z,99.90
2019-06-08T00:31:27.197Z,99.90
2019-06-08T00:33:59.525Z,99.90
2019-06-08T00:36:31.876Z,99.90
2019-06-08T00:39:06.833Z,99.90
2019-06-08T00:41:39.292Z,99.90
2019-06-08T00:44:11.546Z,99.90
2019-06-08T00:46:43.879Z,99.90
2019-06-08T00:49:16.426Z,99.90
2019-06-08T00:51:48.956Z,99.90
2019-06-08T00:54:21.570Z,99.90
2019-06-08T00:56:54.302Z,99.90
2019-06-08T00:59:26.596Z,99.90
2019-06-08T01:01:58.928Z,99.90
2019-06-08T01:04:31.202Z,99.90
2019-06-08T01:07:03.606Z,99.90
2019-06-08T01:09:35.886Z,99.90
2019-06-08T01:12:08.249Z,99.90
2019-06-08T01:14:40.558Z,99.90
2019-06-08T01:17:12.871Z,99.90
2019-06-08T01:19:45.191Z,99.90
2019-06-08T01:22:17.717Z,99.90
2019-06-08T01:24:49.976Z,99.90
2019-06-08T01:27:22.308Z,99.90
2019-06-08T01:29:54.594Z,99.90
2019-06-08T01:32:26.934Z,99.90
2019-06-08T01:34:59.242Z,99.90
2019-06-08T01:37:31.623Z,99.90
2019-06-08T01:40:04.804Z,99.90
2019-06-08T01:42:37.157Z,99.90
2019-06-08T01:45:11.452Z,99.90
2019-06-08T01:47:43.780Z,99.90
2019-06-08T01:50:16.110Z,99.90
2019-06-08T01:52:48.865Z,99.90
2019-06-08T01:55:21.175Z,99.90
2019-06-08T01:57:53.498Z,99.90
2019-06-08T02:00:32.574Z,99.90
2019-06-08T02:03:00.478Z,99.90
2019-06-08T02:05:32.794Z,99.90
2019-06-08T02:08:06.469Z,99.90
2019-06-08T02:10:38.763Z,99.90
2019-06-08T02:13:11.095Z,99.90
2019-06-08T02:15:43.447Z,99.90
2019-06-08T02:18:15.830Z,99.90
2019-06-08T02:20:49.224Z,99.90
2019-06-08T02:23:21.675Z,99.90
2019-06-08T02:25:53.970Z,99.90
2019-06-08T02:28:27.361Z,99.90
2019-06-08T02:31:00.073Z,99.90
2019-06-08T02:33:34.882Z,99.90
2019-06-08T02:36:08.487Z,99.90
2019-06-08T02:38:41.113Z,99.90
2019-06-08T02:41:13.691Z,99.90
2019-06-08T02:43:46.026Z,99.90
2019-06-08T02:46:18.321Z,99.90
2019-06-08T02:49:03.239Z,99.90
2019-06-08T02:51:24.768Z,99.90
2019-06-08T02:53:57.675Z,99.90
2019-06-08T02:56:34.141Z,99.90
2019-06-08T02:59:07.678Z,99.90
2019-06-08T03:01:41.508Z,99.90
2019-06-08T03:04:16.657Z,99.90
2019-06-08T03:06:51.547Z,99.90
2019-06-08T03:09:26.173Z,99.90
2019-06-08T03:11:58.716Z,99.90
2019-06-08T03:14:33.450Z,99.90
2019-06-08T03:17:08.117Z,99.90
2019-06-08T03:19:41.867Z,99.90
2019-06-08T03:22:14.371Z,99.90
2019-06-08T03:24:46.738Z,99.90
2019-06-08T03:27:19.359Z,99.90
2019-06-08T03:29:51.649Z,99.90
2019-06-08T03:32:24.377Z,99.90
2019-06-08T03:34:57.418Z,99.90
2019-06-08T03:37:30.231Z,99.90
2019-06-08T03:40:02.740Z,99.90
2019-06-08T03:42:35.037Z,99.90
2019-06-08T03:45:07.827Z,99.90
2019-06-08T03:47:41.839Z,99.90
2019-06-08T03:50:14.492Z,99.90
2019-06-08T03:52:47.086Z,99.90
2019-06-08T03:55:19.824Z,99.90
2019-06-08T03:57:52.217Z,99.90
2019-06-08T04:00:24.724Z,99.90
2019-06-08T04:02:57.005Z,99.90
2019-06-08T04:05:29.358Z,99.90
2019-06-08T04:08:01.666Z,99.90
2019-06-08T04:10:33.993Z,99.90
2019-06-08T04:13:06.310Z,99.90
2019-06-08T04:15:40.328Z,99.90
2019-06-08T04:18:12.774Z,99.90
2019-06-08T04:20:46.354Z,99.90
2019-06-08T04:23:19.126Z,99.90
2019-06-08T04:25:51.476Z,99.90
2019-06-08T04:28:23.802Z,99.90
2019-06-08T04:30:56.213Z,99.90
2019-06-08T04:33:28.531Z,99.90
2019-06-08T04:36:00.911Z,99.90
2019-06-08T04:38:33.249Z,99.90
2019-06-08T04:41:05.646Z,99.90
2019-06-08T04:43:38.510Z,99.90
2019-06-08T04:46:11.813Z,99.90
2019-06-08T04:48:45.223Z,99.90
2019-06-08T04:51:18.164Z,99.90
2019-06-08T04:53:50.709Z,99.90
2019-06-08T04:56:23.099Z,99.90
2019-06-08T04:58:55.455Z,99.90
2019-06-08T05:01:27.836Z,99.90
2019-06-08T05:04:00.438Z,99.90
2019-06-08T05:06:32.747Z,99.90
2019-06-08T05:09:07.343Z,99.90
2019-06-08T05:11:40.997Z,99.90
2019-06-08T05:14:13.768Z,99.90
2019-06-08T05:16:47.414Z,99.90
2019-06-08T05:19:19.917Z,99.90
2019-06-08T05:21:52.595Z,99.90
2019-06-08T05:24:24.960Z,99.90
2019-06-08T05:26:57.279Z,99.90
2019-06-08T05:29:29.861Z,99.90
2019-06-08T05:32:02.196Z,99.90
2019-06-08T05:34:34.797Z,99.90
2019-06-08T05:37:07.240Z,99.90
2019-06-08T05:39:39.587Z,99.90
2019-06-08T05:42:11.891Z,99.90
2019-06-08T05:44:44.197Z,99.90
2019-06-08T05:47:16.512Z,99.90
2019-06-08T05:49:49.956Z,99.90
2019-06-08T05:52:22.353Z,99.90
2019-06-08T05:54:54.649Z,99.90
2019-06-08T05:57:26.991Z,99.90
2019-06-08T05:59:59.308Z,99.90
2019-06-08T06:02:31.645Z,99.90
2019-06-08T06:05:04.935Z,99.90
2019-06-08T06:07:37.239Z,99.90
2019-06-08T06:10:09.603Z,99.90
2019-06-08T06:12:42.975Z,99.90
2019-06-08T06:15:20.084Z,99.90
2019-06-08T06:17:53.998Z,99.90
2019-06-08T06:20:26.326Z,99.70
2019-06-08T06:22:58.769Z,99.50
2019-06-08T06:25:31.137Z,99.50
2019-06-08T06:28:06.249Z,99.40
2019-06-08T06:30:37.767Z,99.20
2019-06-08T06:33:11.161Z,99.10
2019-06-08T06:35:45.753Z,99.20
2019-06-08T06:38:18.235Z,98.40
2019-06-08T06:40:50.568Z,97.30
2019-06-08T06:43:23.406Z,97.50
2019-06-08T06:45:56.137Z,97.40
2019-06-08T06:48:28.420Z,96.70
2019-06-08T06:51:00.761Z,95.70
2019-06-08T06:53:33.773Z,96.30
2019-06-08T06:56:06.062Z,95.40
2019-06-08T06:58:39.491Z,95.30
2019-06-08T07:01:11.879Z,94.50
2019-06-08T07:03:44.505Z,93.90
2019-06-08T07:06:16.847Z,93.50
2019-06-08T07:08:50.231Z,93.00
2019-06-08T07:11:22.694Z,93.30
2019-06-08T07:13:55.213Z,93.30
2019-06-08T07:16:27.875Z,92.20
2019-06-08T07:19:00.231Z,91.70
2019-06-08T07:21:41.313Z,91.60
2019-06-08T07:24:06.972Z,92.40
2019-06-08T07:26:39.606Z,92.00
2019-06-08T07:29:11.920Z,92.90
2019-06-08T07:31:44.289Z,92.60
2019-06-08T07:34:17.055Z,92.00
2019-06-08T07:36:49.747Z,91.90
2019-06-08T07:39:22.143Z,92.10
2019-06-08T07:41:55.843Z,91.90
2019-06-08T07:44:28.363Z,92.40
2019-06-08T07:47:00.663Z,92.90
2019-06-08T07:49:32.978Z,92.80
2019-06-08T07:52:10.290Z,91.50
2019-06-08T07:54:39.622Z,90.80
2019-06-08T07:57:12.410Z,91.10
2019-06-08T07:59:44.854Z,91.20
2019-06-08T08:02:17.244Z,92.10
2019-06-08T08:04:50.450Z,91.70
2019-06-08T08:07:23.240Z,91.80
2019-06-08T08:09:56.999Z,92.00
2019-06-08T08:12:29.474Z,91.70
2019-06-08T08:15:01.778Z,91.60
2019-06-08T08:17:34.517Z,91.20
2019-06-08T08:20:07.462Z,91.70
2019-06-08T08:22:39.741Z,91.90
2019-06-08T08:25:13.504Z,91.00
2019-06-08T08:27:47.957Z,91.70
2019-06-08T08:30:20.424Z,91.20
2019-06-08T08:32:54.471Z,91.50
2019-06-08T08:35:28.025Z,91.20
2019-06-08T08:38:04.101Z,91.40
2019-06-08T08:40:34.948Z,90.90
2019-06-08T08:43:09.354Z,91.10
2019-06-08T08:45:44.131Z,91.10
2019-06-08T08:48:25.421Z,91.00
2019-06-08T08:50:51.330Z,91.30
2019-06-08T08:53:24.670Z,91.20
2019-06-08T08:56:00.162Z,91.50
2019-06-08T08:58:32.091Z,91.40
2019-06-08T09:01:04.403Z,91.40
2019-06-08T09:03:39.310Z,91.40
2019-06-08T09:06:10.756Z,91.00
2019-06-08T09:08:43.088Z,91.40
2019-06-08T09:11:17.462Z,91.20
2019-06-08T09:13:49.512Z,91.10
2019-06-08T09:16:23.573Z,90.70
2019-06-08T09:18:59.331Z,91.00
2019-06-08T09:21:30.161Z,90.90
2019-06-08T09:24:04.042Z,90.80
2019-06-08T09:26:38.209Z,90.90
2019-06-08T09:29:11.427Z,91.20
2019-06-08T09:31:43.928Z,91.10
2019-06-08T09:34:19.171Z,91.00
2019-06-08T09:36:50.269Z,91.10
2019-06-08T09:39:22.561Z,91.10
2019-06-08T09:41:55.994Z,91.30
2019-06-08T09:44:31.566Z,90.80
2019-06-08T09:47:09.454Z,91.00
2019-06-08T09:49:38.381Z,90.80
2019-06-08T09:52:10.716Z,90.60
2019-06-08T09:54:43.995Z,90.20
2019-06-08T09:57:18.883Z,90.10
2019-06-08T09:59:51.849Z,89.90
2019-06-08T10:02:23.816Z,88.00
2019-06-08T10:04:58.890Z,88.10
2019-06-08T10:07:31.299Z,89.40
2019-06-08T10:10:04.814Z,89.30
2019-06-08T10:12:41.040Z,89.10
2019-06-08T10:15:12.830Z,89.50
2019-06-08T10:17:47.456Z,90.00
2019-06-08T10:20:19.492Z,90.00
2019-06-08T10:22:51.842Z,90.30
2019-06-08T10:25:25.332Z,89.90
2019-06-08T10:28:04.109Z,90.20
2019-06-08T10:30:31.665Z,90.20
2019-06-08T10:33:05.783Z,90.20
2019-06-08T10:35:39.343Z,90.00
2019-06-08T10:38:12.193Z,90.10
2019-06-08T10:41:07.085Z,90.20
2019-06-08T10:43:38.347Z,90.40
2019-06-08T10:46:16.569Z,90.40
2019-06-08T10:48:44.033Z,90.60
2019-06-08T10:51:18.402Z,91.00
2019-06-08T10:53:53.290Z,91.20
2019-06-08T10:56:30.851Z,91.50
2019-06-08T10:59:01.711Z,91.70
2019-06-08T11:01:33.731Z,91.70
2019-06-08T11:04:07.130Z,91.70
2019-06-08T11:06:40.350Z,91.60
2019-06-08T11:09:15.221Z,91.80
2019-06-08T11:11:48.087Z,91.80
2019-06-08T11:14:22.674Z,91.90
2019-06-08T11:16:54.502Z,91.60
2019-06-08T11:19:26.908Z,91.60
2019-06-08T11:22:02.866Z,91.10
2019-06-08T11:24:33.343Z,91.00
2019-06-08T11:27:05.789Z,91.10
2019-06-08T11:29:38.516Z,91.40
2019-06-08T11:32:12.471Z,91.80
2019-06-08T11:34:44.885Z,91.30
2019-06-08T11:37:20.757Z,91.30
2019-06-08T11:39:51.220Z,91.60
2019-06-08T11:42:25.570Z,92.00
2019-06-08T11:44:58.659Z,92.10
2019-06-08T11:47:32.941Z,92.30
2019-06-08T11:50:07.155Z,91.80
2019-06-08T11:52:39.731Z,92.30
2019-06-08T11:55:13.258Z,92.30
2019-06-08T11:57:45.813Z,92.00
2019-06-08T12:00:48.877Z,91.10
2019-06-08T12:03:21.394Z,91.10
2019-06-08T12:05:54.842Z,90.30
2019-06-08T12:08:28.438Z,90.00
2019-06-08T12:11:02.675Z,89.60
2019-06-08T12:13:35.520Z,90.20
2019-06-08T12:16:10.549Z,90.00
2019-06-08T12:18:42.985Z,90.10
2019-06-08T12:21:15.574Z,90.30
2019-06-08T12:23:47.917Z,90.10
2019-06-08T12:26:20.376Z,89.20
2019-06-08T12:28:52.666Z,88.10
2019-06-08T12:31:27.943Z,88.00
2019-06-08T12:34:00.376Z,87.60
2019-06-08T12:36:32.680Z,88.40
2019-06-08T12:39:07.907Z,89.10
2019-06-08T12:41:40.705Z,88.30
2019-06-08T12:44:15.112Z,88.80
2019-06-08T12:46:48.556Z,88.50
2019-06-08T12:49:21.074Z,88.30
2019-06-08T12:51:53.378Z,87.60
2019-06-08T12:54:28.397Z,87.90
2019-06-08T12:57:01.834Z,87.90
2019-06-08T12:59:38.578Z,88.40
2019-06-08T13:02:15.688Z,87.60
2019-06-08T13:04:45.039Z,86.60
2019-06-08T13:07:17.299Z,86.90
2019-06-08T13:09:49.613Z,87.70
2019-06-08T13:12:21.997Z,88.30
2019-06-08T13:14:54.405Z,88.70
2019-06-08T13:17:27.952Z,88.60
2019-06-08T13:20:00.486Z,87.40
2019-06-08T13:22:33.128Z,87.80
2019-06-08T13:25:22.824Z,87.50
2019-06-08T13:27:41.412Z,86.90
2019-06-08T13:30:17.417Z,87.20
2019-06-08T13:32:48.444Z,87.40
2019-06-08T13:35:22.386Z,86.90
2019-06-08T13:37:54.893Z,86.60
2019-06-08T13:40:29.764Z,87.00
2019-06-08T13:43:02.175Z,87.00
2019-06-08T13:45:34.455Z,86.50
2019-06-08T13:48:08.721Z,85.90
2019-06-08T13:50:40.773Z,85.50
2019-06-08T13:53:13.130Z,85.60
2019-06-08T13:55:53.275Z,86.30
2019-06-08T13:58:26.755Z,86.10
2019-06-08T14:00:56.748Z,86.30
2019-06-08T14:03:28.232Z,87.70
2019-06-08T14:06:00.828Z,86.90
2019-06-08T14:08:33.337Z,86.90
2019-06-08T14:11:08.165Z,87.00
2019-06-08T14:13:39.714Z,86.50
2019-06-08T14:16:12.099Z,86.60
2019-06-08T14:18:44.478Z,85.80
2019-06-08T14:21:21.527Z,85.60
2019-06-08T14:23:50.919Z,85.20
2019-06-08T14:26:24.348Z,85.00
2019-06-08T14:28:58.720Z,85.00
2019-06-08T14:31:32.183Z,84.70
2019-06-08T14:34:04.602Z,85.70
2019-06-08T14:36:40.626Z,85.10
2019-06-08T14:39:12.944Z,85.00
2019-06-08T14:41:49.208Z,84.20
2019-06-08T14:44:21.408Z,84.30
2019-06-08T14:46:54.775Z,83.10
2019-06-08T14:49:32.765Z,82.60
2019-06-08T14:52:01.062Z,82.50
2019-06-08T14:54:35.273Z,81.60
2019-06-08T14:57:07.963Z,82.30
2019-06-08T14:59:40.360Z,82.30
2019-06-08T15:02:12.648Z,83.40
2019-06-08T15:04:44.981Z,84.20
2019-06-08T15:07:20.164Z,84.90
2019-06-08T15:09:51.593Z,84.40
2019-06-08T15:12:25.520Z,85.10
2019-06-08T15:14:58.071Z,85.10
2019-06-08T15:17:32.184Z,84.40
2019-06-08T15:20:05.036Z,84.40
2019-06-08T15:22:39.710Z,83.90
2019-06-08T15:25:12.246Z,84.30
2019-06-08T15:27:44.642Z,84.60
2019-06-08T15:30:17.938Z,84.30
2019-06-08T15:32:50.307Z,84.10
2019-06-08T15:35:23.050Z,84.80
2019-06-08T15:37:55.360Z,85.30
2019-06-08T15:40:27.951Z,85.10
2019-06-08T15:43:00.223Z,85.00
2019-06-08T15:45:34.245Z,85.40
2019-06-08T15:48:08.137Z,85.90
2019-06-08T15:50:41.658Z,86.30
2019-06-08T15:53:14.239Z,86.10
2019-06-08T15:55:51.319Z,86.60
2019-06-08T15:58:22.796Z,87.70
2019-06-08T16:00:55.449Z,88.10
2019-06-08T16:03:29.285Z,87.40
2019-06-08T16:06:03.787Z,87.90
2019-06-08T16:08:37.945Z,87.90
2019-06-08T16:11:10.082Z,88.20
2019-06-08T16:13:42.453Z,88.90
2019-06-08T16:16:14.802Z,90.10
2019-06-08T16:18:47.122Z,92.00
2019-06-08T16:21:19.425Z,92.00
2019-06-08T16:23:51.725Z,92.50
2019-06-08T16:26:24.013Z,92.40
2019-06-08T16:28:56.384Z,92.10
2019-06-08T16:31:28.985Z,91.70
2019-06-08T16:34:03.401Z,91.20
2019-06-08T16:36:36.693Z,91.30
2019-06-08T16:39:09.700Z,91.40
2019-06-08T16:41:42.033Z,91.40
2019-06-08T16:44:14.332Z,91.50
2019-06-08T16:46:46.689Z,91.40
2019-06-08T16:49:19.059Z,91.50
2019-06-08T16:51:51.673Z,91.70
2019-06-08T16:54:23.989Z,91.70
2019-06-08T16:57:09.595Z,92.00
2019-06-08T16:59:30.297Z,92.00
2019-06-08T17:02:02.728Z,91.90
2019-06-08T17:04:35.147Z,91.90
2019-06-08T17:07:07.670Z,92.10
2019-06-08T17:09:40.194Z,92.80
2019-06-08T17:12:12.782Z,93.20
2019-06-08T17:14:45.318Z,94.00
2019-06-08T17:17:17.644Z,95.30
2019-06-08T17:19:50.318Z,96.90
2019-06-08T17:22:22.624Z,96.80
2019-06-08T17:24:54.893Z,97.30
2019-06-08T17:27:27.399Z,97.60
2019-06-08T17:29:59.970Z,97.60
2019-06-08T17:32:33.822Z,97.50
2019-06-08T17:35:06.638Z,97.50
2019-06-08T17:37:40.104Z,97.50
2019-06-08T17:40:13.752Z,97.60
2019-06-08T17:42:46.016Z,97.90
2019-06-08T17:45:18.458Z,98.40
2019-06-08T17:47:50.825Z,99.00
2019-06-08T17:50:23.168Z,98.90
2019-06-08T17:52:55.445Z,99.70
2019-06-08T17:55:27.797Z,99.40
2019-06-08T17:58:00.359Z,99.60
2019-06-08T18:00:33.742Z,99.90
2019-06-08T18:03:08.351Z,99.90
2019-06-08T18:05:42.810Z,99.90
2019-06-08T18:08:17.363Z,99.90
2019-06-08T18:10:49.049Z,99.90
2019-06-08T18:13:21.394Z,99.90
2019-06-08T18:15:53.666Z,99.90
2019-06-08T18:18:28.211Z,99.90
2019-06-08T18:21:00.306Z,99.90
2019-06-08T18:23:32.662Z,99.90
2019-06-08T18:26:07.586Z,99.90
2019-06-08T18:28:42.252Z,99.90
2019-06-08T18:31:15.379Z,99.90
2019-06-08T18:33:50.390Z,99.90
2019-06-08T18:36:23.918Z,99.90
2019-06-08T18:38:58.175Z,99.90
2019-06-08T18:41:31.752Z,99.90
2019-06-08T18:44:04.117Z,99.90
2019-06-08T18:46:37.972Z,99.90
2019-06-08T18:49:10.482Z,99.90
2019-06-08T18:51:43.898Z,99.90
2019-06-08T18:54:18.776Z,99.90
2019-06-08T18:56:51.043Z,99.90
2019-06-08T18:59:23.714Z,99.90
2019-06-08T19:01:56.295Z,99.90
2019-06-08T19:04:30.894Z,99.90
2019-06-08T19:07:04.786Z,99.90
2019-06-08T19:09:39.480Z,99.90
2019-06-08T19:12:12.168Z,99.90
2019-06-08T19:14:44.439Z,99.90
2019-06-08T19:17:17.449Z,99.90
2019-06-08T19:19:52.248Z,99.90
2019-06-08T19:22:23.993Z,99.90
2019-06-08T19:24:57.429Z,99.90
2019-06-08T19:27:29.841Z,99.90
2019-06-08T19:30:02.122Z,99.90
2019-06-08T19:32:34.576Z,99.90
2019-06-08T19:35:07.381Z,99.90
2019-06-08T19:37:39.737Z,99.90
2019-06-08T19:40:13.714Z,99.90
2019-06-08T19:42:56.868Z,99.90
2019-06-08T19:45:20.063Z,99.90
2019-06-08T19:47:52.350Z,99.90
2019-06-08T19:50:28.057Z,99.90
2019-06-08T19:53:00.097Z,99.90
2019-06-08T19:55:32.463Z,99.90
2019-06-08T19:58:04.905Z,99.90
2019-06-08T20:00:40.062Z,99.90
2019-06-08T20:03:12.060Z,99.90
2019-06-08T20:05:45.372Z,99.90
2019-06-08T20:08:18.282Z,99.90
2019-06-08T20:10:50.981Z,99.90
2019-06-08T20:13:23.283Z,99.90
2019-06-08T20:15:59.600Z,99.90
2019-06-08T20:18:29.623Z,99.90
2019-06-08T20:21:01.992Z,99.90
2019-06-08T20:23:38.065Z,99.90
2019-06-08T20:26:09.915Z,99.90
2019-06-08T20:28:43.455Z,99.90
2019-06-08T20:31:18.034Z,99.90
2019-06-08T20:33:52.125Z,99.90
2019-06-08T20:36:24.527Z,99.90
2019-06-08T20:38:58.319Z,99.90
2019-06-08T20:41:30.937Z,99.90
2019-06-08T20:44:03.301Z,99.90
2019-06-08T20:46:37.617Z,99.90
2019-06-08T20:49:09.617Z,99.90
2019-06-08T20:51:42.461Z,99.90
2019-06-08T20:54:17.190Z,99.90
2019-06-08T20:56:50.626Z,99.90
2019-06-08T20:59:29.929Z,99.90
2019-06-08T21:01:58.901Z,99.90
2019-06-08T21:04:31.803Z,99.90
2019-06-08T21:07:04.152Z,99.90
2019-06-08T21:09:37.058Z,99.90
2019-06-08T21:12:10.527Z,99.90
2019-06-08T21:14:42.965Z,99.90
2019-06-08T21:17:15.328Z,99.90
2019-06-08T21:19:48.805Z,99.90
2019-06-08T21:22:21.281Z,99.90
2019-06-08T21:24:55.101Z,99.90
2019-06-08T21:27:27.799Z,99.90
2019-06-08T21:30:08.419Z,99.90
2019-06-08T21:32:34.388Z,99.90
2019-06-08T21:35:07.643Z,99.80
2019-06-08T21:37:40.201Z,99.80
2019-06-08T21:40:12.587Z,99.70
2019-06-08T21:42:48.861Z,99.60
2019-06-08T21:45:19.864Z,99.70
2019-06-08T21:47:53.317Z,99.50
2019-06-08T21:50:27.556Z,99.90
2019-06-08T21:53:00.628Z,99.70
2019-06-08T21:55:35.221Z,99.60
2019-06-08T21:58:10.661Z,99.40
2019-06-08T22:00:43.686Z,99.50
2019-06-08T22:03:17.833Z,99.40
2019-06-08T22:05:51.711Z,99.40
2019-06-08T22:08:24.442Z,99.40
2019-06-08T22:10:58.996Z,99.40
2019-06-08T22:13:33.502Z,99.20
2019-06-08T22:16:08.168Z,99.20
2019-06-08T22:18:47.500Z,99.10
2019-06-08T22:21:22.931Z,99.00
2019-06-08T22:23:57.784Z,99.00
2019-06-08T22:26:32.694Z,99.00
2019-06-08T22:29:07.608Z,99.00
2019-06-08T22:31:42.869Z,99.10
2019-06-08T22:34:17.458Z,99.10
2019-06-08T22:36:53.079Z,99.10
2019-06-08T22:39:28.794Z,99.20
2019-06-08T22:42:03.747Z,99.30
2019-06-08T22:44:38.258Z,99.20
2019-06-08T22:47:11.538Z,99.30
2019-06-08T22:49:47.631Z,99.60
2019-06-08T22:52:19.876Z,99.30
2019-06-08T22:54:56.264Z,99.40
2019-06-08T22:57:27.947Z,99.30
2019-06-08T23:00:11.730Z,99.20
2019-06-08T23:02:44.521Z,99.20
2019-06-08T23:05:18.788Z,99.30
2019-06-08T23:07:59.849Z,99.30
2019-06-08T23:10:31.803Z,99.30
2019-06-08T23:13:06.234Z,99.40
2019-06-08T23:15:38.955Z,99.40
2019-06-08T23:18:12.045Z,99.30
2019-06-08T23:20:44.516Z,99.40
2019-06-08T23:23:17.950Z,99.50
2019-06-08T23:25:55.635Z,99.40
2019-06-08T23:28:28.313Z,99.30
2019-06-08T23:31:09.390Z,99.40
2019-06-08T23:33:34.721Z,99.50
2019-06-08T23:36:40.886Z,99.50
2019-06-08T23:38:42.476Z,99.70
2019-06-08T23:41:14.760Z,99.70
2019-06-08T23:43:48.032Z,99.60
2019-06-08T23:46:20.578Z,99.50
2019-06-08T23:48:52.930Z,99.70
2019-06-08T23:51:27.384Z,99.90
2019-06-08T23:54:02.783Z,99.70
2019-06-08T23:56:39.784Z,99.90
2019-06-08T23:59:12.758Z,99.90
